Terminal Aerodrome Forecast
Issued by NWS

Home | Current Version | Previous Version | Text Only | Print | Product List | Glossary On
Versions: 1 2 3 4 5 6 7 8 9 10 11 12 13
432
FTUS42 KMLB 291127
TAFLEE
TAF
KLEE 291127Z 2912/3012 28003KT 1/2SM FG OVC003
     FM291400 VRB04KT P6SM FEW040
     FM292100 VRB05KT P6SM VCSH BKN060
     FM300100 VRB04KT P6SM FEW080=

USA.gov is the U.S. government's official web portal to all federal, state and local government web resources and services.